Time;durP1;ratioP1;P1;durP2;ratioP2;P2;SDS_P1;SDS_P2;PMS_P1;PMS_P2;Temp;Humidity;BMP_temperature;BMP_pressure;BME280_temperature;BME280_humidity;BME280_pressure;Samples;Min_cycle;Max_cycle;Signal;HPM_P1;HPM_P2
2022/01/26 00:05:43;;;;;;;216.88;54.75;;;;;;;1.98;100.00;103347.94;5035317;28;20097;-43
2022/01/26 00:06:30;;;;;;;221.38;52.67;;;;;;;1.96;100.00;103341.84;5032850;28;20225;-43
2022/01/26 00:08:56;;;;;;;218.80;53.70;;;;;;;1.99;100.00;103347.03;5058038;28;20020;-42
2022/01/26 00:11:24;;;;;;;217.02;54.15;;;;;;;1.99;100.00;103342.63;5061595;28;20508;-45
2022/01/26 00:13:50;;;;;;;224.50;54.33;;;;;;;2.00;100.00;103348.75;5049835;28;20041;-43
2022/01/26 00:16:34;;;;;;;223.25;54.70;;;;;;;1.99;100.00;103352.31;5044465;28;20161;-43
2022/01/26 00:19:01;;;;;;;216.10;52.95;;;;;;;1.98;100.00;103343.50;5023484;28;20047;-42
2022/01/26 00:21:41;;;;;;;219.68;53.25;;;;;;;1.98;100.00;103353.19;5052343;28;20104;-44
2022/01/26 00:24:22;;;;;;;232.55;54.53;;;;;;;1.95;100.00;103351.53;5053140;28;20032;-43
2022/01/26 00:29:22;;;;;;;234.77;58.83;;;;;;;1.95;100.00;103333.09;5053214;28;20432;-44
2022/01/26 00:40:21;;;;;;;221.15;52.85;;;;;;;1.92;100.00;103329.63;5053408;28;20100;-41
2022/01/26 00:42:50;;;;;;;223.70;52.60;;;;;;;1.88;100.00;103325.38;5053016;28;20017;-46
2022/01/26 00:45:21;;;;;;;227.18;53.50;;;;;;;1.92;100.00;103327.00;5053340;28;20432;-43
2022/01/26 00:47:46;;;;;;;254.80;61.92;;;;;;;1.91;100.00;103326.16;5053784;28;20032;-43
2022/01/26 00:50:12;;;;;;;238.77;57.28;;;;;;;1.91;100.00;103327.94;5053758;28;20048;-42
2022/01/26 00:52:43;;;;;;;238.80;56.60;;;;;;;1.91;100.00;103328.78;5051156;28;20024;-45
2022/01/26 00:55:11;;;;;;;238.95;56.47;;;;;;;1.93;100.00;103328.75;5035784;28;20031;-46
2022/01/26 00:57:37;;;;;;;233.63;56.47;;;;;;;1.91;100.00;103325.28;5052384;28;20052;-43
2022/01/26 01:00:09;;;;;;;232.68;54.92;;;;;;;1.94;100.00;103341.88;5054102;28;20024;-44
2022/01/26 01:02:34;;;;;;;242.98;57.58;;;;;;;1.95;100.00;103327.81;5052552;28;20039;-44
2022/01/26 01:05:04;;;;;;;237.07;57.95;;;;;;;1.97;100.00;103331.25;5035172;28;20059;-43
2022/01/26 01:07:34;;;;;;;240.00;55.88;;;;;;;1.99;100.00;103331.22;5051852;28;20376;-45
2022/01/26 01:09:59;;;;;;;245.52;55.85;;;;;;;1.98;100.00;103327.69;5053901;28;20036;-42
2022/01/26 01:12:25;;;;;;;240.60;54.70;;;;;;;2.00;100.00;103325.91;5052744;28;20021;-46
2022/01/26 01:14:50;;;;;;;235.80;56.00;;;;;;;2.00;100.00;103314.47;5053065;28;20036;-43
2022/01/26 01:17:23;;;;;;;237.30;55.85;;;;;;;1.99;100.00;103310.13;5052161;28;20037;-43
2022/01/26 01:20:09;;;;;;;257.85;60.67;;;;;;;1.98;100.00;103311.88;5053820;28;20190;-43
2022/01/26 01:22:52;;;;;;;233.32;54.75;;;;;;;2.00;100.00;103314.47;5055417;28;20842;-46
2022/01/26 01:26:09;;;;;;;249.60;57.28;;;;;;;1.98;100.00;103309.25;5056422;28;20066;-45
2022/01/26 01:31:06;;;;;;;236.57;57.20;;;;;;;1.95;100.00;103297.94;5033038;28;20043;-43
2022/01/26 01:33:32;;;;;;;236.32;55.92;;;;;;;1.93;100.00;103281.31;5056357;28;20020;-44
2022/01/26 01:35:59;;;;;;;244.32;58.38;;;;;;;1.92;100.00;103292.75;5056113;28;20469;-42
2022/01/26 01:38:28;;;;;;;243.68;57.10;;;;;;;1.89;100.00;103277.91;5055272;28;20232;-46
2022/01/26 01:40:53;;;;;;;250.02;60.88;;;;;;;1.88;100.00;103281.44;5052550;28;20012;-42
2022/01/26 01:43:20;;;;;;;255.88;58.63;;;;;;;1.86;100.00;103289.38;5055819;28;20047;-42
2022/01/26 01:45:49;;;;;;;246.88;55.97;;;;;;;1.85;100.00;103292.94;5056824;28;20423;-44
2022/01/26 01:48:19;;;;;;;240.23;56.95;;;;;;;1.86;100.00;103296.44;5056358;28;20420;-45
2022/01/26 01:50:47;;;;;;;236.43;57.13;;;;;;;1.88;100.00;103305.16;5055290;28;20016;-46
2022/01/26 01:53:15;;;;;;;220.77;57.00;;;;;;;1.86;100.00;103296.44;5038492;28;20040;-46
2022/01/26 01:55:43;;;;;;;229.80;61.22;;;;;;;1.82;100.00;103290.38;5056853;28;20376;-47
2022/01/26 01:58:09;;;;;;;227.18;61.28;;;;;;;1.79;100.00;103301.00;5055645;28;20016;-43
2022/01/26 02:00:35;;;;;;;225.60;57.20;;;;;;;1.77;100.00;103288.81;5056225;28;20123;-47
2022/01/26 02:03:00;;;;;;;233.93;53.70;;;;;;;1.77;100.00;103287.03;5056053;28;20337;-44
2022/01/26 02:05:26;;;;;;;226.55;57.78;;;;;;;1.75;100.00;103277.41;5055328;28;20633;-44
2022/01/26 02:07:52;;;;;;;219.57;53.97;;;;;;;1.76;100.00;103271.25;5055331;28;20028;-43
2022/01/26 02:10:17;;;;;;;230.15;55.75;;;;;;;1.73;100.00;103261.69;5055857;28;20070;-44
2022/01/26 02:12:48;;;;;;;218.77;53.00;;;;;;;1.77;100.00;103262.47;5055624;28;20085;-44
2022/01/26 02:15:19;;;;;;;222.52;55.60;;;;;;;1.77;100.00;103270.38;5038564;28;20433;-45
2022/01/26 02:20:55;;;;;;;211.07;51.60;;;;;;;1.75;100.00;103275.69;5055416;28;20472;-43
2022/01/26 02:56:11;;;;;;;237.75;56.50;;;;;;;1.75;100.00;103215.06;5055089;28;20052;-46
2022/01/26 03:04:08;;;;;;;239.65;55.72;;;;;;;1.75;100.00;103225.63;5054575;28;20702;-44
2022/01/26 03:07:21;;;;;;;245.80;54.22;;;;;;;1.76;100.00;103213.31;5053893;28;20051;-44
2022/01/26 03:09:27;;;;;;;239.80;55.63;;;;;;;1.76;100.00;103202.75;5042765;28;20480;-47
2022/01/26 03:11:54;;;;;;;228.93;55.63;;;;;;;1.74;100.00;103204.59;5054698;28;20094;-44
2022/01/26 03:17:45;;;;;;;242.43;57.72;;;;;;;1.68;100.00;103209.13;5053863;28;20031;-43
2022/01/26 03:19:54;;;;;;;251.30;56.42;;;;;;;1.69;100.00;103220.50;5053973;28;20296;-44
2022/01/26 03:35:42;;;;;;;254.00;56.30;;;;;;;1.67;100.00;103202.13;5053271;28;20391;-45
2022/01/26 03:38:17;;;;;;;252.65;58.40;;;;;;;1.68;100.00;103210.88;5053497;28;20209;-45
2022/01/26 03:40:43;;;;;;;251.88;57.35;;;;;;;1.68;100.00;103209.13;5054460;28;20070;-45
2022/01/26 03:43:08;;;;;;;261.08;62.35;;;;;;;1.67;100.00;103206.53;5053148;28;20021;-48
2022/01/26 03:45:33;;;;;;;252.07;57.08;;;;;;;1.67;100.00;103198.63;5054034;28;20446;-45
2022/01/26 03:47:59;;;;;;;264.23;57.58;;;;;;;1.67;100.00;103190.72;5054541;28;20099;-46
2022/01/26 03:50:24;;;;;;;257.45;59.17;;;;;;;1.65;100.00;103188.13;5052926;28;20043;-43
2022/01/26 03:52:50;;;;;;;257.33;59.75;;;;;;;1.68;100.00;103189.81;5053674;28;20519;-43
2022/01/26 03:55:16;;;;;;;258.83;57.75;;;;;;;1.71;100.00;103205.53;5053354;28;20047;-46
2022/01/26 03:57:41;;;;;;;264.42;60.83;;;;;;;1.71;100.00;103197.63;5053161;28;20226;-44
2022/01/26 04:00:08;;;;;;;262.30;57.28;;;;;;;1.72;100.00;103195.88;5054149;28;20032;-45
2022/01/26 04:02:34;;;;;;;260.35;58.88;;;;;;;1.72;100.00;103195.88;5053668;28;20040;-48
2022/01/26 04:05:02;;;;;;;270.00;62.72;;;;;;;1.70;100.00;103200.28;5053625;28;20027;-45
2022/01/26 04:07:27;;;;;;;268.52;57.83;;;;;;;1.65;100.00;103203.94;5052059;28;20189;-44
2022/01/26 04:09:59;;;;;;;281.67;62.53;;;;;;;1.64;100.00;103199.56;5054098;28;20111;-47
2022/01/26 04:12:24;;;;;;;254.00;58.83;;;;;;;1.63;100.00;103191.72;5053157;28;20020;-43
2022/01/26 04:14:55;;;;;;;267.80;60.15;;;;;;;1.58;100.00;103188.34;5053767;28;20399;-45
2022/01/26 04:17:20;;;;;;;278.50;63.40;;;;;;;1.57;100.00;103197.19;5053854;28;20518;-45
2022/01/26 04:19:53;;;;;;;282.35;60.22;;;;;;;1.55;100.00;103199.00;5053102;28;20086;-46
2022/01/26 04:22:24;;;;;;;270.10;59.25;;;;;;;1.56;100.00;103195.44;5052391;28;20024;-43
2022/01/26 04:24:53;;;;;;;264.73;58.58;;;;;;;1.53;100.00;103200.78;5054033;28;20029;-44
2022/01/26 04:27:24;;;;;;;272.45;59.53;;;;;;;1.48;100.00;103196.53;5052922;28;20020;-44
2022/01/26 04:29:50;;;;;;;272.15;60.15;;;;;;;1.48;100.00;103200.94;5053077;28;20047;-45
2022/01/26 04:32:17;;;;;;;279.23;62.15;;;;;;;1.47;100.00;103205.31;5053251;28;20616;-45
2022/01/26 04:34:43;;;;;;;283.58;64.10;;;;;;;1.48;100.00;103229.91;5054528;28;20107;-45
2022/01/26 04:37:40;;;;;;;265.13;57.92;;;;;;;1.49;100.00;103221.97;5053287;28;20207;-43
2022/01/26 04:40:10;;;;;;;283.05;57.28;;;;;;;1.47;100.00;103230.81;5053194;28;20035;-45
2022/01/26 04:42:47;;;;;;;267.58;56.92;;;;;;;1.51;100.00;103236.84;5052697;28;20036;-44
2022/01/26 04:45:12;;;;;;;271.80;54.83;;;;;;;1.51;100.00;103244.75;5054261;28;20064;-48
2022/01/26 04:47:38;;;;;;;280.45;57.00;;;;;;;1.51;100.00;103248.25;5053305;28;20063;-47
2022/01/26 04:50:06;;;;;;;291.25;62.10;;;;;;;1.51;100.00;103236.84;5051774;28;20537;-44
2022/01/26 04:52:32;;;;;;;271.80;56.97;;;;;;;1.49;100.00;103234.25;5053096;28;20027;-45
2022/01/26 04:54:57;;;;;;;274.27;57.33;;;;;;;1.46;100.00;103245.75;5054746;28;20024;-44
2022/01/26 04:57:22;;;;;;;259.95;53.92;;;;;;;1.46;100.00;103244.84;5039633;28;20036;-45
2022/01/26 04:59:48;;;;;;;283.35;58.08;;;;;;;1.46;100.00;103236.97;5037070;28;20025;-47
2022/01/26 05:02:13;;;;;;;274.75;57.38;;;;;;;1.44;100.00;103229.13;5045071;28;20301;-48
2022/01/26 05:04:38;;;;;;;289.45;60.63;;;;;;;1.42;100.00;103217.75;5044459;28;20039;-44
2022/01/26 05:07:03;;;;;;;293.83;57.28;;;;;;;1.42;100.00;103224.81;5046853;28;20147;-47
2022/01/26 05:09:29;;;;;;;270.92;55.55;;;;;;;1.42;100.00;103228.28;5041233;28;20013;-44
2022/01/26 05:11:55;;;;;;;292.10;59.97;;;;;;;1.37;100.00;103226.69;5036857;28;20163;-43
2022/01/26 05:14:21;;;;;;;281.70;58.08;;;;;;;1.37;100.00;103216.16;5036734;28;20510;-44
2022/01/26 05:16:47;;;;;;;284.10;58.78;;;;;;;1.33;100.00;103206.63;5018957;28;20027;-43
2022/01/26 05:19:13;;;;;;;291.35;60.63;;;;;;;1.32;100.00;103207.53;5036161;28;20051;-44
2022/01/26 05:21:38;;;;;;;307.52;64.75;;;;;;;1.31;100.00;103193.53;5034782;28;20067;-44
2022/01/26 05:24:04;;;;;;;278.85;57.80;;;;;;;1.33;100.00;103185.56;5036539;28;20071;-46
2022/01/26 05:26:29;;;;;;;275.48;56.42;;;;;;;1.31;100.00;103190.88;5038653;28;20396;-46
2022/01/26 05:28:55;;;;;;;302.73;64.30;;;;;;;1.28;100.00;103178.66;5043521;28;20193;-43
2022/01/26 05:31:20;;;;;;;283.17;58.35;;;;;;;1.30;100.00;103186.50;5045250;28;20047;-44
2022/01/26 05:33:46;;;;;;;289.02;56.35;;;;;;;1.27;100.00;103203.28;5046403;28;20613;-45
2022/01/26 05:36:12;;;;;;;299.40;64.60;;;;;;;1.32;100.00;103205.75;5043246;28;20020;-46
2022/01/26 05:38:37;;;;;;;291.45;65.07;;;;;;;1.30;100.00;103189.16;5047801;28;20199;-42
2022/01/26 05:41:04;;;;;;;284.45;60.05;;;;;;;1.31;100.00;103196.16;5032102;28;20025;-44
2022/01/26 05:43:30;;;;;;;287.40;59.15;;;;;;;1.32;100.00;103195.22;5055421;28;20468;-45
2022/01/26 05:46:01;;;;;;;271.58;56.47;;;;;;;1.32;100.00;103202.28;5038588;28;20032;-43
2022/01/26 05:48:26;;;;;;;287.02;59.95;;;;;;;1.32;100.00;103194.38;5055437;28;20249;-44
2022/01/26 05:50:53;;;;;;;310.90;69.63;;;;;;;1.28;100.00;103193.59;5055888;28;20116;-48
2022/01/26 05:53:23;;;;;;;297.52;62.90;;;;;;;1.28;100.00;103198.88;5055112;28;20048;-44
2022/01/26 05:55:55;;;;;;;291.60;61.90;;;;;;;1.28;100.00;103177.81;5056854;28;20549;-44
2022/01/26 05:58:21;;;;;;;295.00;60.17;;;;;;;1.27;100.00;103171.69;5030128;28;20036;-45
2022/01/26 06:00:46;;;;;;;302.70;61.40;;;;;;;1.26;100.00;103164.69;5055132;28;20119;-43
2022/01/26 06:03:12;;;;;;;301.15;59.28;;;;;;;1.26;100.00;103169.09;5053836;28;20668;-45
2022/01/26 06:05:38;;;;;;;300.60;61.50;;;;;;;1.26;100.00;103164.69;5054107;28;20025;-46
2022/01/26 06:08:03;;;;;;;302.13;59.42;;;;;;;1.28;100.00;103175.16;5054674;28;20033;-44
2022/01/26 06:10:29;;;;;;;313.92;63.13;;;;;;;1.28;100.00;103176.03;5054832;28;20032;-46
2022/01/26 06:12:54;;;;;;;291.20;58.08;;;;;;;1.29;100.00;103190.94;5040410;28;20112;-44
2022/01/26 06:15:20;;;;;;;303.88;64.38;;;;;;;1.32;100.00;103191.75;5052774;28;20032;-45
2022/01/26 06:17:45;;;;;;;306.23;66.05;;;;;;;1.31;100.00;103193.53;5054531;28;20043;-44
2022/01/26 06:20:11;;;;;;;309.92;64.22;;;;;;;1.33;100.00;103186.44;5028719;28;20055;-42
2022/01/26 06:22:37;;;;;;;299.33;64.63;;;;;;;1.32;100.00;103168.03;5045693;28;20040;-43
2022/01/26 06:25:06;;;;;;;303.90;62.85;;;;;;;1.32;100.00;103173.31;5030473;28;20081;-47
2022/01/26 06:27:32;;;;;;;284.65;59.60;;;;;;;1.32;100.00;103175.94;5050113;28;20032;-48
2022/01/26 06:29:58;;;;;;;304.33;65.28;;;;;;;1.32;100.00;103173.31;5045476;28;20024;-44
2022/01/26 06:32:23;;;;;;;294.88;60.65;;;;;;;1.32;100.00;103168.03;5045710;28;20020;-44
2022/01/26 06:34:48;;;;;;;311.65;65.22;;;;;;;1.30;100.00;103184.72;5048710;28;20035;-44
2022/01/26 06:37:16;;;;;;;307.05;62.25;;;;;;;1.29;100.00;103185.66;5051937;28;20031;-45
2022/01/26 06:39:41;;;;;;;316.20;66.70;;;;;;;1.30;100.00;103183.88;5052799;28;20117;-43
2022/01/26 06:42:12;;;;;;;305.55;62.05;;;;;;;1.34;100.00;103195.19;5029660;28;20361;-43
2022/01/26 06:44:48;;;;;;;302.85;62.50;;;;;;;1.34;100.00;103203.97;5048801;28;20025;-47
2022/01/26 06:47:33;;;;;;;304.27;63.47;;;;;;;1.32;100.00;103195.22;5050500;28;20051;-45
2022/01/26 06:49:58;;;;;;;304.52;60.80;;;;;;;1.32;100.00;103189.09;5052114;28;20365;-42
2022/01/26 06:52:23;;;;;;;320.10;65.60;;;;;;;1.32;100.00;103187.31;5049421;28;20073;-43
2022/01/26 06:54:48;;;;;;;291.73;61.05;;;;;;;1.34;100.00;103182.03;5050153;28;20044;-42
2022/01/26 06:57:14;;;;;;;313.17;61.47;;;;;;;1.35;100.00;103187.25;5046273;28;20021;-43
2022/01/26 06:59:39;;;;;;;311.60;64.38;;;;;;;1.35;100.00;103183.75;5039251;28;20524;-43
2022/01/26 07:02:04;;;;;;;316.10;67.47;;;;;;;1.35;100.00;103178.50;5050768;28;20089;-44
2022/01/26 07:04:29;;;;;;;323.15;66.82;;;;;;;1.34;100.00;103182.91;5074760;28;20154;-43
2022/01/26 07:06:55;;;;;;;321.88;67.40;;;;;;;1.35;100.00;103179.34;5074267;28;20028;-42
2022/01/26 07:09:20;;;;;;;331.75;66.53;;;;;;;1.37;100.00;103188.06;5074066;28;20419;-46
2022/01/26 07:11:46;;;;;;;318.15;64.95;;;;;;;1.40;100.00;103197.66;5056996;28;20032;-44
2022/01/26 07:14:22;;;;;;;319.90;65.22;;;;;;;1.41;100.00;103191.47;5045507;28;20426;-42
2022/01/26 07:19:53;;;;;;;333.88;68.45;;;;;;;1.41;100.00;103191.47;5053691;28;20425;-46
2022/01/26 07:22:19;;;;;;;346.25;77.47;;;;;;;1.42;100.00;103217.75;5053194;28;20028;-42
2022/01/26 07:24:45;;;;;;;320.58;65.55;;;;;;;1.42;100.00;103212.50;5054006;28;20066;-45
2022/01/26 07:27:10;;;;;;;327.52;66.60;;;;;;;1.43;100.00;103201.06;5036241;28;20036;-44
2022/01/26 07:29:36;;;;;;;343.10;69.85;;;;;;;1.44;100.00;103204.53;5053314;28;20572;-42
2022/01/26 07:32:04;;;;;;;335.20;71.47;;;;;;;1.39;100.00;103202.06;5054475;28;20361;-44
2022/01/26 07:34:29;;;;;;;346.88;68.63;;;;;;;1.41;100.00;103197.63;5052914;28;20347;-44
2022/01/26 07:37:00;;;;;;;374.15;80.43;;;;;;;1.44;100.00;103199.28;5040454;28;20111;-44
2022/01/26 07:39:48;;;;;;;363.00;72.55;;;;;;;1.43;100.00;103197.56;5058536;28;20023;-44
2022/01/26 07:42:14;;;;;;;365.33;69.15;;;;;;;1.43;100.00;103208.09;5061467;28;20028;-43
2022/01/26 07:44:40;;;;;;;349.77;71.25;;;;;;;1.41;100.00;103205.50;5061168;28;20810;-44
2022/01/26 07:47:06;;;;;;;347.10;72.35;;;;;;;1.43;100.00;103208.09;5054085;28;20123;-46
2022/01/26 07:49:31;;;;;;;354.35;67.78;;;;;;;1.43;100.00;103214.22;5056647;28;20045;-42
2022/01/26 07:51:57;;;;;;;355.55;70.28;;;;;;;1.42;100.00;103201.97;5052529;28;20028;-44
2022/01/26 07:54:23;;;;;;;379.90;73.55;;;;;;;1.46;100.00;103218.53;5052275;28;20020;-43
2022/01/26 07:56:48;;;;;;;347.92;69.00;;;;;;;1.46;100.00;103222.03;5054026;28;20395;-44
2022/01/26 07:59:14;;;;;;;352.08;70.53;;;;;;;1.46;100.00;103223.78;5058025;28;20028;-43
2022/01/26 08:01:39;;;;;;;378.58;78.90;;;;;;;1.50;100.00;103236.00;5046488;28;20019;-42
2022/01/26 08:04:05;;;;;;;341.05;68.13;;;;;;;1.51;100.00;103236.84;5062929;28;20444;-43
2022/01/26 08:06:30;;;;;;;357.83;70.57;;;;;;;1.52;100.00;103234.16;5044779;28;20416;-43
2022/01/26 08:08:56;;;;;;;365.00;69.97;;;;;;;1.52;100.00;103230.69;5056625;28;20020;-41
2022/01/26 08:11:21;;;;;;;370.58;71.85;;;;;;;1.54;100.00;103229.72;5053587;28;20308;-47
2022/01/26 08:13:47;;;;;;;343.02;65.38;;;;;;;1.56;100.00;103235.81;5051873;28;20403;-42
2022/01/26 08:16:12;;;;;;;368.17;74.28;;;;;;;1.59;100.00;103232.22;5059634;28;20032;-43
2022/01/26 08:18:37;;;;;;;362.17;72.22;;;;;;;1.59;100.00;103235.72;5060732;28;20082;-45
2022/01/26 08:21:06;;;;;;;351.92;70.20;;;;;;;1.60;100.00;103226.91;5052159;28;20048;-44
2022/01/26 08:23:32;;;;;;;331.80;66.82;;;;;;;1.62;100.00;103221.59;5052836;28;20047;-43
2022/01/26 08:25:58;;;;;;;343.52;66.35;;;;;;;1.62;100.00;103230.38;5053338;28;20104;-44
2022/01/26 08:28:30;;;;;;;343.50;68.65;;;;;;;1.63;100.00;103237.38;5050214;28;20271;-42
2022/01/26 08:30:55;;;;;;;358.13;70.53;;;;;;;1.65;100.00;103225.00;5056691;28;20244;-45
2022/01/26 08:33:21;;;;;;;326.70;66.35;;;;;;;1.68;100.00;103224.03;5057073;28;20468;-43
2022/01/26 08:35:46;;;;;;;337.05;67.30;;;;;;;1.68;100.00;103229.31;5057808;28;20431;-45
2022/01/26 08:38:12;;;;;;;344.55;71.88;;;;;;;1.71;100.00;103231.00;5058169;28;20029;-45
2022/01/26 08:40:38;;;;;;;353.80;69.50;;;;;;;1.73;100.00;103223.91;5056836;28;20503;-42
2022/01/26 08:43:04;;;;;;;333.60;67.05;;;;;;;1.73;100.00;103231.81;5056685;28;20165;-45
2022/01/26 08:45:30;;;;;;;326.05;65.68;;;;;;;1.77;100.00;103229.06;5056235;28;20031;-44
2022/01/26 08:47:56;;;;;;;306.00;64.72;;;;;;;1.79;100.00;103232.50;5057704;28;20031;-45
2022/01/26 08:50:21;;;;;;;343.52;73.78;;;;;;;1.81;100.00;103241.22;5038439;28;20437;-46
2022/01/26 08:52:47;;;;;;;307.52;64.93;;;;;;;1.84;100.00;103242.91;5057473;28;20475;-41
2022/01/26 08:55:13;;;;;;;305.33;65.07;;;;;;;1.87;100.00;103234.94;5057582;28;20061;-45
2022/01/26 08:57:39;;;;;;;304.95;61.92;;;;;;;1.90;100.00;103241.88;5057142;28;20035;-46
2022/01/26 09:00:08;;;;;;;304.85;64.43;;;;;;;1.89;100.00;103229.63;5057830;28;20502;-43
2022/01/26 09:02:34;;;;;;;319.38;68.47;;;;;;;1.90;100.00;103229.56;5057808;28;20029;-44
2022/01/26 09:04:59;;;;;;;300.95;62.95;;;;;;;1.94;100.00;103225.06;5056933;28;20473;-46
2022/01/26 09:07:24;;;;;;;295.42;62.25;;;;;;;1.95;100.00;103222.41;5056478;28;20082;-42
2022/01/26 09:09:50;;;;;;;287.20;60.85;;;;;;;1.95;100.00;103227.66;5057450;28;20198;-44
2022/01/26 09:12:18;;;;;;;291.40;64.45;;;;;;;1.96;100.00;103231.16;5056510;28;20021;-43
2022/01/26 09:14:44;;;;;;;300.55;65.82;;;;;;;1.95;100.00;103229.41;5057231;28;20304;-45
2022/01/26 09:17:11;;;;;;;317.67;66.78;;;;;;;1.95;100.00;103232.94;5057576;28;20108;-43
2022/01/26 09:19:38;;;;;;;317.15;67.05;;;;;;;1.96;100.00;103237.28;5044969;28;20064;-43
2022/01/26 09:22:10;;;;;;;298.83;65.03;;;;;;;1.99;100.00;103241.63;5035743;28;20025;-46
2022/01/26 09:24:37;;;;;;;313.00;66.60;;;;;;;2.00;100.00;103241.56;5036332;28;20095;-44
2022/01/26 09:27:06;;;;;;;306.65;62.50;;;;;;;2.02;100.00;103237.09;5036689;28;20044;-42
2022/01/26 09:29:31;;;;;;;312.63;66.53;;;;;;;2.05;100.00;103238.78;5036486;28;20025;-42
2022/01/26 09:31:57;;;;;;;304.02;63.17;;;;;;;2.06;100.00;103248.41;5036895;28;20082;-42
2022/01/26 09:34:26;;;;;;;295.02;60.45;;;;;;;2.07;100.00;103239.63;5034133;28;20025;-43
2022/01/26 09:36:52;;;;;;;292.10;64.72;;;;;;;2.12;100.00;103240.34;5037202;28;20113;-45
2022/01/26 09:39:20;;;;;;;287.48;59.60;;;;;;;2.15;100.00;103236.72;5036084;28;20036;-44
2022/01/26 09:41:48;;;;;;;310.23;67.53;;;;;;;2.17;100.00;103234.91;5018400;28;20067;-47
2022/01/26 09:44:14;;;;;;;286.70;62.60;;;;;;;2.18;100.00;103226.09;5036756;28;20060;-42
2022/01/26 09:46:40;;;;;;;285.75;61.80;;;;;;;2.20;100.00;103221.63;5036376;28;20025;-43
2022/01/26 09:49:07;;;;;;;294.58;65.65;;;;;;;2.22;100.00;103217.16;5036962;28;20111;-44
2022/01/26 09:51:39;;;;;;;278.20;62.90;;;;;;;2.26;100.00;103216.19;5035516;28;20028;-45
2022/01/26 09:54:13;;;;;;;263.17;59.05;;;;;;;2.28;100.00;103218.75;5036221;28;20104;-42
2022/01/26 09:56:39;;;;;;;274.88;61.97;;;;;;;2.31;100.00;103216.00;5036368;28;20025;-45
2022/01/26 09:59:06;;;;;;;277.30;58.15;;;;;;;2.31;100.00;103226.56;5035345;28;20050;-43
2022/01/26 10:01:49;;;;;;;281.15;62.53;;;;;;;2.30;100.00;103225.69;5036067;28;20028;-45
2022/01/26 10:04:20;;;;;;;276.17;63.08;;;;;;;2.31;100.00;103222.16;5035861;28;20455;-44
2022/01/26 10:06:49;;;;;;;276.02;60.80;;;;;;;2.32;100.00;103220.38;5036305;28;20417;-44
2022/01/26 10:09:40;;;;;;;245.82;56.03;;;;;;;2.33;100.00;103217.69;5045186;28;20035;-46
2022/01/26 10:17:41;;;;;;;264.10;57.25;;;;;;;2.34;100.00;103229.97;5055953;28;20397;-45
2022/01/26 10:20:09;;;;;;;254.40;58.05;;;;;;;2.33;100.00;103212.41;5054602;28;20118;-45
2022/01/26 10:22:36;;;;;;;244.35;54.65;;;;;;;2.36;100.00;103207.06;5054492;28;20098;-46
2022/01/26 10:25:21;;;;;;;243.98;57.33;;;;;;;2.38;100.00;103204.38;5055806;28;20469;-44
2022/01/26 10:27:50;;;;;;;236.20;52.75;;;;;;;2.33;100.00;103199.25;5055064;28;20050;-44
2022/01/26 10:30:18;;;;;;;231.25;52.80;;;;;;;2.37;100.00;103216.69;5055269;28;20024;-45
2022/01/26 10:32:47;;;;;;;222.02;55.70;;;;;;;2.37;100.00;103215.81;5055743;28;20035;-48
2022/01/26 10:35:15;;;;;;;228.38;53.35;;;;;;;2.34;100.00;103227.34;5050915;28;20111;-43
2022/01/26 10:37:56;;;;;;;231.38;53.88;;;;;;;2.41;100.00;103257.00;5055012;28;20025;-44
2022/01/26 10:40:24;;;;;;;;;;;;;;;2.44;100.00;103278.00;5056036;28;20012;-42
2022/01/26 10:43:11;;;;;;;220.13;53.33;;;;;;;2.46;100.00;103285.88;5055514;28;19916;-43
2022/01/26 10:48:30;;;;;;;224.88;51.70;;;;;;;2.49;100.00;103264.69;5055859;28;20032;-43
2022/01/26 10:54:11;;;;;;;204.20;49.13;;;;;;;2.51;100.00;103260.22;4972376;28;20498;-45
2022/01/26 10:56:37;;;;;;;215.93;51.25;;;;;;;2.52;100.00;103246.97;5043968;28;20376;-42
2022/01/26 10:59:03;;;;;;;197.45;51.45;;;;;;;2.53;100.00;103243.44;5055045;28;20017;-43
2022/01/26 11:01:28;;;;;;;193.43;48.67;;;;;;;2.51;100.00;103234.72;5055594;28;20028;-42
2022/01/26 11:03:54;;;;;;;194.30;49.72;;;;;;;2.51;100.00;103247.91;5055400;28;20066;-43
2022/01/26 11:06:19;;;;;;;210.32;51.67;;;;;;;2.54;100.00;103253.06;5054752;28;20545;-43
2022/01/26 11:08:46;;;;;;;199.70;50.40;;;;;;;2.56;100.00;103243.34;5049781;28;20524;-45
2022/01/26 11:11:19;;;;;;;182.70;46.88;;;;;;;2.58;100.00;103240.63;5036026;28;20033;-43
2022/01/26 11:13:44;;;;;;;176.73;48.63;;;;;;;2.61;100.00;103248.44;5034834;28;20017;-45
2022/01/26 11:16:13;;;;;;;191.82;47.00;;;;;;;2.62;100.00;103239.63;5035804;28;20072;-42
2022/01/26 11:18:46;;;;;;;201.55;49.22;;;;;;;2.61;100.00;103230.88;5034713;28;20028;-46
2022/01/26 11:21:23;;;;;;;204.90;49.90;;;;;;;2.64;100.00;103236.94;5034657;28;20033;-45
2022/01/26 11:23:50;;;;;;;186.23;48.53;;;;;;;2.66;100.00;103229.84;5035201;28;20060;-45
2022/01/26 11:26:23;;;;;;;187.85;47.28;;;;;;;2.68;100.00;103231.53;5035196;28;20110;-46
2022/01/26 11:28:48;;;;;;;179.95;48.25;;;;;;;2.71;100.00;103230.53;5049292;28;20386;-46
2022/01/26 11:31:16;;;;;;;199.98;48.70;;;;;;;2.75;100.00;103226.88;5055350;28;20021;-44
2022/01/26 11:33:43;;;;;;;188.10;48.58;;;;;;;2.76;100.00;103223.34;5055489;28;20115;-45
2022/01/26 11:36:10;;;;;;;187.85;50.55;;;;;;;2.78;100.00;103210.94;5054366;28;20020;-44
2022/01/26 11:47:02;;;;;;;179.63;46.80;;;;;;;2.86;100.00;103202.78;5054952;28;20047;-44
2022/01/26 11:49:39;;;;;;;191.10;49.15;;;;;;;2.90;100.00;103207.03;5053832;28;20037;-43
2022/01/26 11:52:05;;;;;;;183.73;48.67;;;;;;;2.94;100.00;103198.13;5055007;28;20423;-46
2022/01/26 11:54:43;;;;;;;185.93;54.00;;;;;;;2.86;100.00;103184.31;5035757;28;20025;-45
2022/01/26 11:57:14;;;;;;;169.23;47.85;;;;;;;2.91;100.00;103185.88;5052076;28;20170;-44
2022/01/26 11:59:48;;;;;;;;;;;;;;;2.93;100.00;103186.66;5040849;28;20028;-46
2022/01/26 12:02:25;;;;;;;180.45;47.53;;;;;;;2.93;100.00;103185.81;5049146;28;19913;-43
2022/01/26 12:05:02;;;;;;;177.63;49.35;;;;;;;2.95;100.00;103186.63;5035869;28;20123;-45
2022/01/26 12:07:27;;;;;;;169.05;46.63;;;;;;;2.98;100.00;103184.72;5053629;28;20023;-48
2022/01/26 12:09:54;;;;;;;179.57;47.83;;;;;;;2.97;100.00;103185.66;5054772;28;20024;-44
2022/01/26 12:12:22;;;;;;;171.07;46.85;;;;;;;2.99;100.00;103178.53;5053766;28;20028;-41
2022/01/26 12:15:00;;;;;;;171.63;46.97;;;;;;;3.00;100.00;103187.31;5054060;28;20028;-45
2022/01/26 12:17:29;;;;;;;183.15;49.55;;;;;;;3.03;100.00;103186.38;5054246;28;20366;-45
2022/01/26 12:32:04;;;;;;;192.02;50.55;;;;;;;3.03;100.00;103189.84;5053211;28;20137;-48
2022/01/26 12:37:04;;;;;;;196.70;49.72;;;;;;;3.31;100.00;103197.66;5053159;28;20050;-46
2022/01/26 12:42:25;;;;;;;173.45;45.50;;;;;;;3.38;100.00;103193.03;5053619;28;20082;-43
2022/01/26 12:45:01;;;;;;;170.00;44.53;;;;;;;3.39;100.00;103194.72;5054134;28;20557;-44
2022/01/26 12:47:28;;;;;;;171.00;44.13;;;;;;;3.38;100.00;103179.81;5052170;28;20058;-42
2022/01/26 12:49:55;;;;;;;175.20;47.50;;;;;;;3.40;100.00;103187.69;5014813;28;20028;-43
2022/01/26 12:52:22;;;;;;;163.40;46.38;;;;;;;3.45;100.00;103189.22;5034015;28;20030;-43
2022/01/26 12:54:47;;;;;;;179.00;47.90;;;;;;;3.48;100.00;103189.13;5036330;28;20478;-44
2022/01/26 12:57:13;;;;;;;186.50;50.33;;;;;;;3.45;100.00;103181.31;5064586;28;20024;-43
2022/01/26 12:59:39;;;;;;;217.65;51.72;;;;;;;3.42;100.00;103170.84;5053698;28;20503;-43
2022/01/26 13:02:04;;;;;;;201.75;55.58;;;;;;;3.34;100.00;103165.88;5063902;28;20298;-43